KMIA Weather Reports


Display with metric or nautical units.
time (UTC)temp
F
wind
direction
speed
MPH
gust
MPH
rain 1hr
in
rain 24hr
in
rain mn
in
humidity
%
barometer
mb
20200405103021 73 0 0.0 0.0 0.00 0.00 0.00 75 1013.0
20200405100017 73 0 0.0 0.0 0.00 0.00 0.00 75 1013.0
20200405093021 73 0 0.0 0.0 0.00 0.00 0.00 75 1012.0
20200405090016 73 0 0.0 0.0 0.00 0.00 0.00 75 1012.0
20200405083020 73 0 0.0 0.0 0.00 0.00 0.00 73 1012.0
20200405080021 73 0 0.0 0.0 0.00 0.00 0.00 73 1012.0
20200405073017 74 110 3.0 0.0 0.00 0.00 0.00 71 1013.0
20200405070021 74 110 3.0 0.0 0.00 0.00 0.00 71 1013.0
20200405063042 76 160 3.0 0.0 0.00 0.00 0.00 64 1014.0
20200405060020 76 160 3.0 0.0 0.00 0.00 0.00 64 1014.0
20200405053049 75 0 0.0 0.0 0.00 0.00 0.00 68 1014.0
20200405050018 75 0 0.0 0.0 0.00 0.00 0.00 68 1014.0
20200405040028 76 140 3.0 0.0 0.00 0.00 0.00 66 1014.0
20200405033029 76 170 5.0 0.0 0.00 0.00 0.00 64 1014.0
20200405030108 76 170 5.0 0.0 0.00 0.00 0.00 64 1014.0
20200405023025 76 160 6.0 0.0 0.00 0.00 0.00 64 1014.0
20200405020042 76 160 6.0 0.0 0.00 0.00 0.00 64 1014.0
20200405013024 77 170 7.0 0.0 0.00 0.00 0.00 61 1014.0
20200405010022 77 170 7.0 0.0 0.00 0.00 0.00 61 1014.0
20200405003021 77 160 8.0 0.0 0.00 0.00 0.00 61 1014.0
20200405000023 77 160 8.0 0.0 0.00 0.00 0.00 61 1014.0
20200404233023 78 160 12.0 20.0 0.00 0.00 0.00 59 1013.0
20200404230026 78 160 12.0 20.0 0.00 0.00 0.00 59 1013.0
20200404223024 80 140 12.0 0.0 0.00 0.00 0.00 54 1012.0
20200404220020 80 140 12.0 0.0 0.00 0.00 0.00 54 1012.0
20200404213023 81 140 12.0 0.0 0.00 0.00 0.00 54 1012.0
20200404210025 81 140 12.0 0.0 0.00 0.00 0.00 54 1012.0
20200404203021 83 150 13.0 0.0 0.00 0.00 0.00 50 1012.0
20200404200019 83 150 13.0 0.0 0.00 0.00 0.00 50 1012.0
20200404193022 83 110 14.0 0.0 0.00 0.00 0.00 52 1013.0
20200404190027 83 110 14.0 0.0 0.00 0.00 0.00 52 1013.0
20200404183029 84 180 7.0 0.0 0.00 0.00 0.00 49 1014.0
20200404180022 84 180 7.0 0.0 0.00 0.00 0.00 49 1014.0
20200404173043 82 0 7.0 0.0 0.00 0.00 0.00 52 1014.0
20200404170019 82 0 7.0 0.0 0.00 0.00 0.00 52 1014.0
20200404163019 82 130 3.0 0.0 0.00 0.00 0.00 48 1015.0
20200404160019 82 130 3.0 0.0 0.00 0.00 0.00 48 1015.0
20200404153032 81 0 3.0 0.0 0.00 0.00 0.00 52 1015.0
20200404150026 81 0 3.0 0.0 0.00 0.00 0.00 52 1015.0
20200404143022 78 0 0.0 0.0 0.00 0.00 0.00 57 1015.0
20200404140021 78 0 0.0 0.0 0.00 0.00 0.00 57 1015.0
20200404133018 76 0 0.0 0.0 0.00 0.00 0.00 64 1015.0
20200404130019 76 0 0.0 0.0 0.00 0.00 0.00 64 1015.0
20200404123023 73 290 3.0 0.0 0.00 0.00 0.00 73 1014.0
20200404120018 73 290 3.0 0.0 0.00 0.00 0.00 73 1014.0
20200404113020 73 0 0.0 0.0 0.00 0.00 0.00 68 1014.0
20200404110021 73 0 0.0 0.0 0.00 0.00 0.00 68 1014.0